Crescent Beach, Florida
Current Conditions -  °F | °C
As of 3:53 PM on Friday 19 Dec 2014 (Local Time) from KSRQ Reporting Station
Clear Clear  
Wind Chill: 69°   Ceiling: Unl
Heat Index: 69°   Visibility: 10mi
Dew Point: 55°   Wind: 6mph
Humidity: 61%   Direction: 260°W
Pressure: 30.02"   Gusts: NA
Location:  27.2613°N, 82.5431°W
Report Text: KSRQ 192053Z AUTO 26005KT 10SM CLR 21/13 A3002 RMK AO2 SLP165 T02060128 56018
Loading
Personal Weather Stations






























Interactive Weather Map New forecast layout! Learn more

10-Day Weather Forecast

Advertisements
Track Severe Weather on mobile